< < Back
Terminal Aerodrome Forecast


Current Version              Previous Versions:   1  2  3  4  5  6  7  8  9  

Terminal Aerodrome Forecast

332
FTUS42 KGSP 011200 RRA
TAFAVL
TAF
KAVL 011225Z 0112/0212 VRB03KT 3SM BR BKN009 BKN019 OVC070
     FM011400 34006KT 5SM -SHRA OVC018
      TEMPO 0115/0119 -SHRA BKN035
     FM011900 14003KT P6SM VCTS OVC027CB
     FM020200 00000KT 5SM BR BKN010=

Latest METAR

766
SAUS70 KWBC 011400 RRX
MTRAVL
METAR KAVL 011354Z VRB04KT 3SM BKN009 BKN025 19/16 A3019 RMK AO2 SFC VIS
10 SLP202 T01890156


USA.gov is the U.S. government's official web portal to all federal, state and local government web resources and services.